Time;durP1;ratioP1;P1;durP2;ratioP2;P2;SDS_P1;SDS_P2;PMS_P1;PMS_P2;Temp;Humidity;BMP_temperature;BMP_pressure;BME280_temperature;BME280_humidity;BME280_pressure;Samples;Min_cycle;Max_cycle;Signal;HPM_P1;HPM_P2
2021/06/07 00:00:22;;;;;;;2.67;1.20;;;19.90;43.80;;;;;;5066239;28;21895;-71
2021/06/07 00:02:49;;;;;;;2.58;0.80;;;19.90;43.90;;;;;;5065431;28;20020;-71
2021/06/07 00:05:17;;;;;;;2.63;0.88;;;19.90;43.80;;;;;;5067338;28;20039;-71
2021/06/07 00:07:44;;;;;;;3.30;1.63;;;19.90;43.80;;;;;;5067320;28;20013;-72
2021/06/07 00:10:13;;;;;;;1.35;0.80;;;19.90;43.90;;;;;;5066505;28;20478;-71
2021/06/07 00:12:39;;;;;;;1.38;0.80;;;19.90;43.80;;;;;;5066612;28;20035;-72
2021/06/07 00:15:10;;;;;;;2.42;0.80;;;19.90;43.90;;;;;;5066385;28;20545;-71
2021/06/07 00:17:38;;;;;;;2.25;1.00;;;19.90;43.80;;;;;;5065689;28;20407;-70
2021/06/07 00:20:24;;;;;;;2.05;1.15;;;19.90;43.90;;;;;;5065187;28;20029;-71
2021/06/07 00:22:51;;;;;;;1.40;0.90;;;19.90;43.80;;;;;;5066166;28;20035;-71
2021/06/07 00:25:18;;;;;;;2.60;1.10;;;19.90;43.80;;;;;;5066884;28;20039;-72
2021/06/07 00:27:45;;;;;;;2.45;0.90;;;19.80;43.80;;;;;;5065646;28;20020;-71
2021/06/07 00:30:12;;;;;;;2.25;0.98;;;19.90;43.80;;;;;;5065897;28;20082;-71
2021/06/07 00:32:38;;;;;;;2.65;0.82;;;19.90;43.80;;;;;;5065540;28;20021;-71
2021/06/07 00:35:06;;;;;;;1.45;1.05;;;19.80;43.80;;;;;;5064571;28;20374;-72
2021/06/07 00:37:33;;;;;;;3.63;1.15;;;19.80;43.90;;;;;;5066537;28;20375;-72
2021/06/07 00:39:59;;;;;;;3.15;1.10;;;19.90;43.90;;;;;;5065893;28;20013;-71
2021/06/07 00:42:26;;;;;;;6.18;1.48;;;19.80;43.90;;;;;;5067390;28;20025;-71
2021/06/07 00:44:52;;;;;;;2.00;0.80;;;19.80;43.90;;;;;;5064867;28;20025;-71
2021/06/07 00:47:19;;;;;;;4.50;1.10;;;19.80;43.90;;;;;;5065680;28;20029;-71
2021/06/07 00:49:46;;;;;;;6.43;1.67;;;19.80;43.90;;;;;;5065415;28;20021;-71
2021/06/07 00:52:13;;;;;;;4.03;0.75;;;19.80;44.00;;;;;;5067801;28;20013;-71
2021/06/07 00:54:39;;;;;;;1.77;0.75;;;19.80;44.00;;;;;;5064813;28;20017;-70
2021/06/07 00:57:06;;;;;;;1.55;1.25;;;19.80;43.90;;;;;;5066476;28;20024;-70
2021/06/07 00:59:32;;;;;;;2.70;1.05;;;19.80;43.80;;;;;;5064715;28;20017;-72
2021/06/07 01:01:59;;;;;;;1.60;0.93;;;19.80;43.90;;;;;;5066939;28;20021;-71
2021/06/07 01:04:26;;;;;;;1.25;1.08;;;19.80;43.90;;;;;;5070455;28;20016;-70
2021/06/07 01:06:52;;;;;;;2.33;0.80;;;19.80;43.80;;;;;;5069952;28;20082;-71
2021/06/07 01:09:19;;;;;;;3.28;1.00;;;19.80;43.80;;;;;;5070112;28;20051;-71
2021/06/07 01:11:46;;;;;;;3.00;1.20;;;19.80;43.90;;;;;;5067249;28;20123;-71
2021/06/07 01:14:13;;;;;;;1.90;0.73;;;19.80;43.90;;;;;;5069836;28;20036;-72
2021/06/07 01:16:39;;;;;;;3.33;1.17;;;19.80;43.90;;;;;;5067365;28;20021;-71
2021/06/07 01:19:08;;;;;;;4.13;1.00;;;19.80;44.00;;;;;;5070506;28;20070;-70
2021/06/07 01:21:35;;;;;;;1.40;0.88;;;19.80;43.90;;;;;;5068009;28;20052;-70
2021/06/07 01:24:02;;;;;;;5.10;1.80;;;19.80;43.90;;;;;;5070518;28;20130;-71
2021/06/07 01:26:29;;;;;;;2.88;1.10;;;19.80;44.00;;;;;;5068769;28;20044;-71
2021/06/07 01:28:56;;;;;;;3.38;1.10;;;19.80;44.00;;;;;;5069052;28;20096;-71
2021/06/07 01:31:23;;;;;;;4.40;0.90;;;19.80;44.00;;;;;;5068962;28;20023;-71
2021/06/07 01:33:52;;;;;;;2.38;1.00;;;19.70;43.90;;;;;;5067991;28;20032;-72
2021/06/07 01:36:18;;;;;;;1.52;1.30;;;19.70;43.90;;;;;;5069802;28;20516;-72
2021/06/07 01:38:45;;;;;;;1.83;0.90;;;19.70;44.00;;;;;;5069537;28;20120;-71
2021/06/07 01:41:14;;;;;;;4.00;0.90;;;19.80;44.00;;;;;;5069502;28;20037;-70
2021/06/07 01:43:42;;;;;;;6.45;0.80;;;19.70;44.00;;;;;;5071209;28;20020;-72
2021/06/07 01:46:09;;;;;;;1.25;1.00;;;19.70;44.00;;;;;;5068187;28;20782;-70
2021/06/07 01:48:36;;;;;;;1.98;1.05;;;19.70;44.00;;;;;;5068633;28;20118;-71
2021/06/07 01:51:05;;;;;;;3.38;0.90;;;19.70;44.00;;;;;;5068674;28;20100;-71
2021/06/07 01:53:32;;;;;;;1.42;0.98;;;19.70;43.90;;;;;;5069033;28;20527;-71
2021/06/07 01:56:04;;;;;;;2.03;0.70;;;19.70;44.00;;;;;;5068049;28;20021;-71
2021/06/07 01:58:31;;;;;;;1.98;1.00;;;19.70;44.00;;;;;;5068465;28;20051;-71
2021/06/07 02:01:24;;;;;;;1.98;1.15;;;19.70;44.00;;;;;;5068907;28;20017;-71
2021/06/07 02:03:51;;;;;;;2.97;0.90;;;19.70;44.00;;;;;;5066466;28;20116;-71
2021/06/07 02:06:25;;;;;;;2.55;1.15;;;19.70;43.90;;;;;;5067911;28;20403;-71
2021/06/07 02:08:53;;;;;;;3.33;1.08;;;19.70;44.00;;;;;;5069020;28;20036;-71
2021/06/07 02:11:26;;;;;;;4.63;1.00;;;19.70;44.00;;;;;;5068446;28;20013;-71
2021/06/07 02:13:57;;;;;;;1.08;0.70;;;19.70;44.10;;;;;;5070198;28;20095;-71
2021/06/07 02:16:27;;;;;;;2.20;1.00;;;19.60;44.00;;;;;;5066469;28;20092;-72
2021/06/07 02:18:54;;;;;;;1.25;0.82;;;19.70;44.10;;;;;;5068709;28;20020;-71
2021/06/07 02:21:24;;;;;;;5.97;1.67;;;19.60;44.10;;;;;;5067394;28;20122;-71
2021/06/07 02:23:51;;;;;;;2.45;1.00;;;19.70;44.20;;;;;;5069892;28;20025;-70
2021/06/07 02:26:19;;;;;;;2.40;0.80;;;19.60;44.10;;;;;;5067540;28;20024;-72
2021/06/07 02:29:00;;;;;;;4.50;1.15;;;19.60;44.10;;;;;;5067880;28;20021;-71
2021/06/07 02:31:27;;;;;;;1.55;0.77;;;19.60;44.20;;;;;;5067113;28;20021;-71
2021/06/07 02:33:56;;;;;;;3.80;1.23;;;19.60;44.20;;;;;;5068683;28;20028;-71
2021/06/07 02:36:26;;;;;;;1.55;0.65;;;19.60;44.30;;;;;;5069107;28;20548;-71
2021/06/07 02:38:53;;;;;;;1.08;0.80;;;19.60;44.30;;;;;;5068123;28;20107;-70
2021/06/07 02:41:21;;;;;;;1.13;0.90;;;19.60;44.30;;;;;;5068964;28;20047;-71
2021/06/07 02:43:49;;;;;;;4.28;1.00;;;19.60;44.40;;;;;;5066855;28;20021;-71
2021/06/07 02:46:17;;;;;;;1.80;1.33;;;19.60;44.40;;;;;;5068449;28;20416;-71
2021/06/07 02:48:44;;;;;;;0.85;0.70;;;19.60;44.50;;;;;;5067528;28;20476;-71
2021/06/07 02:51:11;;;;;;;2.63;0.80;;;19.60;44.30;;;;;;5067633;28;20028;-71
2021/06/07 02:53:37;;;;;;;5.97;1.17;;;19.50;44.40;;;;;;5067555;28;20021;-71
2021/06/07 02:56:05;;;;;;;1.88;0.90;;;19.50;44.40;;;;;;5066524;28;20296;-71
2021/06/07 02:58:31;;;;;;;3.03;1.50;;;19.50;44.50;;;;;;5067939;28;20148;-70
2021/06/07 03:01:01;;;;;;;2.80;1.95;;;19.50;44.50;;;;;;5066964;28;20067;-72
2021/06/07 03:03:28;;;;;;;1.23;0.85;;;19.50;44.50;;;;;;5067116;28;20016;-71
2021/06/07 03:05:55;;;;;;;4.18;0.98;;;19.50;44.50;;;;;;5069735;28;20419;-71
2021/06/07 03:08:25;;;;;;;1.67;1.48;;;19.50;44.50;;;;;;5065919;28;20088;-71
2021/06/07 03:10:55;;;;;;;1.33;0.77;;;19.50;44.60;;;;;;5069488;28;20399;-71
2021/06/07 03:13:22;;;;;;;1.95;1.20;;;19.50;44.60;;;;;;5066659;28;20024;-72
2021/06/07 03:15:50;;;;;;;1.00;0.63;;;19.50;44.70;;;;;;5068385;28;20024;-71
2021/06/07 03:18:17;;;;;;;0.88;0.80;;;19.50;44.70;;;;;;5067358;28;20051;-71
2021/06/07 03:20:44;;;;;;;1.65;0.88;;;19.50;44.70;;;;;;5066980;28;20040;-71
2021/06/07 03:23:14;;;;;;;0.80;0.80;;;19.50;44.70;;;;;;5066126;28;20055;-71
2021/06/07 03:25:43;;;;;;;2.75;0.88;;;19.50;44.80;;;;;;5065251;28;20616;-71
2021/06/07 03:28:11;;;;;;;3.90;1.80;;;19.40;44.80;;;;;;5066599;28;20112;-70
2021/06/07 03:30:38;;;;;;;78.40;63.72;;;19.40;44.90;;;;;;5066761;28;20093;-71
2021/06/07 03:33:06;;;;;;;11.98;10.10;;;19.40;44.90;;;;;;5067555;28;20096;-71
2021/06/07 03:35:34;;;;;;;10.93;7.18;;;19.40;44.80;;;;;;5067232;28;20379;-70
2021/06/07 03:38:01;;;;;;;7.18;5.40;;;19.40;44.80;;;;;;5067043;28;20029;-70
2021/06/07 03:40:32;;;;;;;6.53;4.50;;;19.40;44.90;;;;;;5068495;28;20019;-71
2021/06/07 03:42:59;;;;;;;4.57;3.50;;;19.40;44.90;;;;;;5066185;28;20074;-70
2021/06/07 03:45:26;;;;;;;4.75;3.63;;;19.40;44.90;;;;;;5067723;28;20483;-71
2021/06/07 03:47:53;;;;;;;3.65;2.67;;;19.40;44.90;;;;;;5065746;28;20024;-71
2021/06/07 03:50:22;;;;;;;2.45;2.10;;;19.40;44.80;;;;;;5083558;28;20359;-72
2021/06/07 03:52:49;;;;;;;1.88;1.77;;;19.40;44.80;;;;;;5066953;28;20044;-71
2021/06/07 03:55:17;;;;;;;5.90;1.92;;;19.40;44.80;;;;;;5067263;28;20108;-73
2021/06/07 03:57:44;;;;;;;2.05;1.30;;;19.40;44.80;;;;;;5066997;28;20024;-74
2021/06/07 04:00:17;;;;;;;2.63;1.65;;;19.40;44.80;;;;;;5065669;28;20495;-73
2021/06/07 04:02:44;;;;;;;5.18;1.42;;;19.40;44.70;;;;;;5068042;28;20468;-76
2021/06/07 04:05:12;;;;;;;18.40;14.30;;;19.40;44.70;;;;;;5065870;28;20028;-71
2021/06/07 04:07:40;;;;;;;6.97;6.20;;;19.40;44.70;;;;;;5068344;28;20036;-71
2021/06/07 04:10:10;;;;;;;4.05;3.65;;;19.40;44.60;;;;;;5066585;28;20024;-71
2021/06/07 04:12:37;;;;;;;7.90;3.95;;;19.40;44.60;;;;;;5067593;28;20114;-72
2021/06/07 04:15:05;;;;;;;5.88;2.75;;;19.40;44.50;;;;;;5066404;28;20564;-70
2021/06/07 04:17:32;;;;;;;2.53;1.80;;;19.40;44.60;;;;;;5065528;28;20035;-72
2021/06/07 04:19:59;;;;;;;2.63;1.80;;;19.40;44.50;;;;;;5067585;28;20036;-73
2021/06/07 04:22:25;;;;;;;3.00;1.70;;;19.40;44.40;;;;;;5067171;28;20542;-73
2021/06/07 04:24:52;;;;;;;4.63;1.70;;;19.40;44.50;;;;;;5066941;28;20040;-71
2021/06/07 04:27:19;;;;;;;4.32;2.35;;;19.40;44.40;;;;;;5064141;28;20017;-71
2021/06/07 04:29:45;;;;;;;5.50;2.20;;;19.40;44.50;;;;;;5067069;28;20379;-73
2021/06/07 04:32:12;;;;;;;2.95;1.65;;;19.40;44.40;;;;;;5073403;28;20016;-72
2021/06/07 04:34:38;;;;;;;4.28;1.63;;;19.40;44.40;;;;;;5067632;28;20027;-76
2021/06/07 04:37:05;;;;;;;1.67;1.45;;;19.40;44.30;;;;;;5068258;28;20017;-71
2021/06/07 04:39:32;;;;;;;2.53;1.25;;;19.40;44.30;;;;;;5069715;28;20024;-71
2021/06/07 04:41:59;;;;;;;4.28;1.23;;;19.40;44.20;;;;;;5069455;28;20072;-75
2021/06/07 04:44:26;;;;;;;4.38;1.33;;;19.30;44.10;;;;;;5068454;28;20055;-76
2021/06/07 04:46:53;;;;;;;3.50;1.02;;;19.40;44.10;;;;;;5070053;28;20020;-71
2021/06/07 04:49:19;;;;;;;1.65;0.90;;;19.40;44.10;;;;;;5071033;28;20035;-72
2021/06/07 04:51:46;;;;;;;3.20;1.00;;;19.40;44.00;;;;;;5070574;28;20070;-73
2021/06/07 04:54:13;;;;;;;1.58;0.88;;;19.40;43.90;;;;;;5070304;28;20013;-72
2021/06/07 04:56:39;;;;;;;1.95;1.23;;;19.40;43.80;;;;;;5070557;28;20013;-73
2021/06/07 04:59:06;;;;;;;2.10;0.77;;;19.40;43.60;;;;;;5070016;28;20024;-73
2021/06/07 05:01:32;;;;;;;1.98;0.70;;;19.40;43.50;;;;;;5069481;28;20040;-74
2021/06/07 05:03:59;;;;;;;3.58;1.02;;;19.40;43.40;;;;;;5069498;28;20033;-75
2021/06/07 05:06:26;;;;;;;6.03;2.22;;;19.40;43.20;;;;;;5071198;28;20017;-74
2021/06/07 05:08:52;;;;;;;2.35;0.63;;;19.50;43.00;;;;;;5069891;28;20040;-74
2021/06/07 05:11:19;;;;;;;2.70;0.70;;;19.50;42.70;;;;;;5070465;28;20058;-76
2021/06/07 05:13:45;;;;;;;6.72;0.90;;;19.50;42.50;;;;;;5070323;28;20017;-75
2021/06/07 05:16:12;;;;;;;1.08;0.75;;;19.50;42.20;;;;;;5070741;28;20040;-74
2021/06/07 05:18:38;;;;;;;2.05;0.75;;;19.50;42.10;;;;;;5068060;28;20025;-74
2021/06/07 05:21:05;;;;;;;6.57;1.35;;;19.60;42.00;;;;;;5069440;28;20071;-75
2021/06/07 05:23:32;;;;;;;3.40;0.93;;;19.60;41.90;;;;;;5069475;28;20021;-75
2021/06/07 05:25:59;;;;;;;2.92;0.75;;;19.60;41.90;;;;;;5069649;28;20101;-75
2021/06/07 05:28:25;;;;;;;11.25;0.98;;;19.60;41.80;;;;;;5069613;28;20021;-76
2021/06/07 05:30:53;;;;;;;3.95;0.57;;;19.60;41.80;;;;;;5068984;28;20085;-75
2021/06/07 05:33:20;;;;;;;0.88;0.55;;;19.60;41.70;;;;;;5069109;28;20044;-75
2021/06/07 05:35:49;;;;;;;3.40;0.60;;;19.60;41.60;;;;;;5070083;28;20013;-76
2021/06/07 05:38:17;;;;;;;3.15;0.80;;;19.60;41.60;;;;;;5068998;28;20056;-75
2021/06/07 05:40:44;;;;;;;6.95;0.98;;;19.60;41.70;;;;;;5067613;28;20036;-76
2021/06/07 05:43:16;;;;;;;4.53;0.90;;;19.60;41.70;;;;;;5068462;28;20135;-75
2021/06/07 05:45:44;;;;;;;2.65;0.85;;;19.60;41.60;;;;;;5069564;28;20500;-75
2021/06/07 05:48:11;;;;;;;3.95;1.45;;;19.60;41.60;;;;;;5069658;28;20027;-75
2021/06/07 05:50:39;;;;;;;9.35;1.35;;;19.60;41.70;;;;;;5068264;28;20021;-74
2021/06/07 05:53:07;;;;;;;9.88;3.47;;;19.60;41.70;;;;;;5067785;28;20017;-75
2021/06/07 05:55:37;;;;;;;6.60;1.63;;;19.60;41.70;;;;;;5068046;28;20021;-75
2021/06/07 05:58:07;;;;;;;2.95;1.08;;;19.60;41.60;;;;;;5068680;28;20201;-75
2021/06/07 06:00:37;;;;;;;9.32;1.00;;;19.60;41.60;;;;;;5067968;28;20433;-74
2021/06/07 06:03:04;;;;;;;5.57;1.17;;;19.60;42.30;;;;;;5067098;28;20020;-75
2021/06/07 06:05:31;;;;;;;7.88;1.33;;;19.60;41.60;;;;;;5069594;28;20043;-76
2021/06/07 06:07:58;;;;;;;5.30;1.08;;;19.60;41.70;;;;;;5068935;28;20024;-74
2021/06/07 06:10:24;;;;;;;4.20;1.10;;;19.60;41.80;;;;;;5069421;28;20170;-76
2021/06/07 06:13:31;;;;;;;1.88;1.17;;;19.60;41.80;;;;;;5069495;28;20027;-73
2021/06/07 06:16:37;;;;;;;2.58;1.00;;;19.60;41.80;;;;;;5068557;28;20093;-77
2021/06/07 06:19:04;;;;;;;4.10;1.60;;;19.60;41.70;;;;;;5065704;28;20021;-76
2021/06/07 06:22:11;;;;;;;3.67;2.00;;;19.60;41.80;;;;;;5065264;28;20575;-76
2021/06/07 06:25:17;;;;;;;3.22;1.90;;;19.60;41.80;;;;;;5060522;28;20557;-76
2021/06/07 06:28:23;;;;;;;4.28;1.70;;;19.60;41.80;;;;;;5062947;28;20051;-75
2021/06/07 06:30:50;;;;;;;10.73;1.58;;;19.60;41.70;;;;;;5066442;28;20100;-74
2021/06/07 06:33:17;;;;;;;10.10;1.48;;;19.60;41.70;;;;;;5065528;28;20056;-76
2021/06/07 06:35:44;;;;;;;7.10;1.90;;;19.60;41.70;;;;;;5064301;28;20013;-75
2021/06/07 06:38:11;;;;;;;3.90;1.38;;;19.60;41.80;;;;;;5065011;28;20418;-75
2021/06/07 06:40:40;;;;;;;5.15;1.30;;;19.70;41.50;;;;;;5062173;28;20064;-75
2021/06/07 06:43:07;;;;;;;5.85;1.23;;;19.70;41.40;;;;;;5066494;28;20017;-77
2021/06/07 06:45:35;;;;;;;8.00;1.75;;;19.70;41.20;;;;;;5063204;28;20025;-75
2021/06/07 06:48:02;;;;;;;8.48;1.05;;;19.80;41.20;;;;;;5065905;28;20131;-77
2021/06/07 06:50:33;;;;;;;6.22;0.98;;;19.80;40.90;;;;;;5060464;28;20020;-76
2021/06/07 06:53:04;;;;;;;7.03;1.00;;;19.80;40.70;;;;;;5062237;28;20044;-81
2021/06/07 06:55:31;;;;;;;3.38;1.02;;;19.90;40.70;;;;;;5066944;28;20074;-77
2021/06/07 06:57:58;;;;;;;14.77;11.02;;;19.90;40.60;;;;;;5064545;28;20024;-75
2021/06/07 07:00:24;;;;;;;11.35;5.93;;;19.90;40.50;;;;;;5066034;28;20021;-76
2021/06/07 07:02:51;;;;;;;8.35;3.17;;;19.90;40.40;;;;;;5063903;28;20024;-75
2021/06/07 07:05:18;;;;;;;10.40;3.33;;;20.00;40.50;;;;;;5068447;28;22362;-75
2021/06/07 07:07:45;;;;;;;6.05;1.83;;;20.00;40.30;;;;;;5063892;28;20024;-76
2021/06/07 07:10:12;;;;;;;5.38;1.58;;;20.10;40.30;;;;;;5066128;28;20391;-76
2021/06/07 07:12:38;;;;;;;7.47;1.55;;;20.10;40.30;;;;;;5066442;28;20062;-75
2021/06/07 07:15:06;;;;;;;4.03;1.00;;;20.10;40.30;;;;;;5066570;28;20122;-76
2021/06/07 07:17:33;;;;;;;6.15;1.17;;;20.10;40.30;;;;;;5066370;28;20028;-77
2021/06/07 07:19:59;;;;;;;6.50;1.30;;;20.10;40.30;;;;;;5065873;28;20170;-76
2021/06/07 07:22:26;;;;;;;10.10;1.00;;;20.20;40.40;;;;;;5066700;28;20067;-76
2021/06/07 07:24:52;;;;;;;6.13;1.05;;;20.20;40.60;;;;;;5063682;28;20031;-76
2021/06/07 07:27:20;;;;;;;3.72;1.17;;;20.20;40.50;;;;;;5067589;28;20035;-75
2021/06/07 07:29:48;;;;;;;7.20;2.25;;;20.20;40.60;;;;;;5067361;28;20016;-76
2021/06/07 07:32:16;;;;;;;5.82;1.13;;;20.30;40.60;;;;;;5064839;28;20028;-76
2021/06/07 07:34:42;;;;;;;15.68;2.53;;;20.30;40.60;;;;;;5064267;28;20032;-76
2021/06/07 07:37:10;;;;;;;2.85;0.65;;;20.30;40.50;;;;;;5066232;28;20041;-76
2021/06/07 07:39:37;;;;;;;2.95;0.80;;;20.40;40.60;;;;;;5064097;28;20475;-76
2021/06/07 07:42:06;;;;;;;3.42;0.80;;;20.40;40.60;;;;;;5064740;28;20651;-76
2021/06/07 07:44:33;;;;;;;2.88;0.80;;;20.50;40.60;;;;;;5065740;28;20087;-77
2021/06/07 07:47:01;;;;;;;4.68;1.13;;;20.50;40.60;;;;;;5062943;28;20017;-76
2021/06/07 07:49:28;;;;;;;5.15;0.93;;;20.50;40.50;;;;;;5065604;28;20066;-76
2021/06/07 07:51:55;;;;;;;9.85;1.65;;;20.60;40.50;;;;;;5065545;28;20032;-76
2021/06/07 07:54:21;;;;;;;9.88;2.38;;;20.60;40.50;;;;;;5061702;28;20021;-76
2021/06/07 07:56:48;;;;;;;2.15;1.02;;;20.70;40.30;;;;;;5065851;28;20031;-77
2021/06/07 07:59:14;;;;;;;3.40;1.25;;;20.70;40.50;;;;;;5064693;28;20028;-76
2021/06/07 08:01:42;;;;;;;9.38;2.30;;;20.80;40.70;;;;;;5064494;28;20078;-77
2021/06/07 08:04:09;;;;;;;5.38;1.88;;;20.80;41.00;;;;;;5064470;28;20048;-77
2021/06/07 08:06:36;;;;;;;6.03;1.35;;;20.80;40.90;;;;;;5066428;28;20052;-77
2021/06/07 08:09:03;;;;;;;10.00;3.53;;;20.90;41.20;;;;;;5066019;28;20021;-76
2021/06/07 08:11:30;;;;;;;3.65;0.93;;;20.90;41.30;;;;;;5062578;28;20399;-77
2021/06/07 08:13:56;;;;;;;4.70;1.63;;;20.90;41.00;;;;;;5064464;28;20104;-76
2021/06/07 08:16:23;;;;;;;3.85;1.33;;;21.00;41.20;;;;;;5071196;28;20033;-76
2021/06/07 08:18:49;;;;;;;4.93;1.48;;;21.00;41.20;;;;;;5063889;28;20503;-77
2021/06/07 08:21:16;;;;;;;2.20;1.00;;;21.10;41.60;;;;;;5063489;28;20048;-76
2021/06/07 08:23:45;;;;;;;8.10;1.05;;;21.10;42.40;;;;;;5080818;28;20048;-76
2021/06/07 08:26:12;;;;;;;4.97;1.17;;;21.10;41.60;;;;;;5065878;28;20055;-77
2021/06/07 08:28:39;;;;;;;5.68;1.30;;;21.20;41.60;;;;;;5063875;28;20724;-75
2021/06/07 08:31:05;;;;;;;4.43;1.30;;;21.20;41.40;;;;;;5059233;28;20457;-77
2021/06/07 08:33:35;;;;;;;4.60;1.33;;;21.30;41.70;;;;;;5063894;28;20013;-78
2021/06/07 08:36:06;;;;;;;6.03;1.40;;;21.40;41.70;;;;;;5064289;28;20031;-75
2021/06/07 08:38:32;;;;;;;6.90;1.30;;;21.40;41.80;;;;;;5062013;28;20033;-74
2021/06/07 08:40:59;;;;;;;6.80;1.50;;;21.40;41.60;;;;;;5065904;28;20541;-76
2021/06/07 08:43:27;;;;;;;3.70;1.15;;;21.50;41.90;;;;;;5066872;28;20009;-78
2021/06/07 08:46:33;;;;;;;7.63;3.90;;;21.60;42.00;;;;;;5059235;28;20029;-75
2021/06/07 08:49:39;;;;;;;7.43;2.70;;;21.60;41.90;;;;;;5077442;28;20387;-76
2021/06/07 08:52:25;;;;;;;;;;;21.70;41.60;;;;;;5063531;28;20051;-74
2021/06/07 08:55:33;;;;;;;3.40;1.35;;;21.70;41.20;;;;;;5058599;28;19935;-76
2021/06/07 08:58:02;;;;;;;6.82;1.95;;;21.80;41.50;;;;;;5061222;28;20119;-75
2021/06/07 09:00:38;;;;;;;3.00;1.25;;;21.90;41.50;;;;;;5062123;28;20043;-75
2021/06/07 09:03:11;;;;;;;7.47;1.65;;;22.00;41.00;;;;;;5062493;28;20044;-76
2021/06/07 09:05:39;;;;;;;3.13;0.98;;;22.00;40.70;;;;;;5064751;28;20024;-77
2021/06/07 09:08:12;;;;;;;1.58;1.20;;;22.10;40.80;;;;;;5057088;28;20028;-76
2021/06/07 09:10:49;;;;;;;8.57;2.65;;;22.20;40.80;;;;;;5063846;28;20021;-76
2021/06/07 09:13:18;;;;;;;4.72;0.85;;;22.20;40.80;;;;;;5062419;28;20399;-75
2021/06/07 09:15:56;;;;;;;3.13;0.88;;;22.30;40.80;;;;;;5061940;28;20154;-76
2021/06/07 09:18:33;;;;;;;4.03;1.05;;;22.40;40.90;;;;;;5063396;28;20028;-76
2021/06/07 09:21:19;;;;;;;1.95;0.93;;;22.50;41.00;;;;;;5060172;28;21482;-76
2021/06/07 09:23:47;;;;;;;3.33;1.17;;;22.50;40.40;;;;;;5065063;28;20070;-75
2021/06/07 09:26:35;;;;;;;2.38;1.20;;;22.60;40.50;;;;;;5065526;28;20025;-76
2021/06/07 09:29:25;;;;;;;3.10;0.80;;;22.60;40.60;;;;;;5073550;28;20035;-76
2021/06/07 09:31:56;;;;;;;4.03;1.23;;;22.70;40.40;;;;;;5066481;28;20032;-77
2021/06/07 09:34:37;;;;;;;3.92;0.95;;;22.70;40.50;;;;;;5066370;28;20025;-76
2021/06/07 09:37:09;;;;;;;7.80;1.55;;;22.80;40.60;;;;;;5063904;28;20093;-76
2021/06/07 09:39:36;;;;;;;8.68;1.45;;;22.80;40.70;;;;;;5067344;28;20721;-76
2021/06/07 09:42:13;;;;;;;4.03;1.08;;;22.90;40.70;;;;;;5067051;28;20475;-77
2021/06/07 09:45:26;;;;;;;5.57;1.52;;;22.90;40.80;;;;;;5065831;28;20052;-76
2021/06/07 09:48:32;;;;;;;3.42;1.70;;;23.00;40.80;;;;;;5066040;28;20028;-76
2021/06/07 09:51:39;;;;;;;6.10;1.17;;;23.10;40.60;;;;;;5066317;28;20063;-77
2021/06/07 09:54:45;;;;;;;2.70;1.20;;;23.20;41.00;;;;;;5064115;28;20498;-75
2021/06/07 09:58:05;;;;;;;4.10;1.30;;;23.30;40.80;;;;;;5066211;28;20029;-77
2021/06/07 10:00:34;;;;;;;1.58;1.48;;;23.40;41.20;;;;;;5064542;28;20017;-76
2021/06/07 10:03:53;;;;;;;8.65;1.55;;;23.40;40.80;;;;;;5065782;28;20063;-77
2021/06/07 10:06:42;;;;;;;4.40;1.52;;;23.50;40.60;;;;;;5067926;28;20032;-74
2021/06/07 10:09:10;;;;;;;7.07;1.25;;;23.60;40.50;;;;;;5066129;28;20024;-76
2021/06/07 10:12:16;;;;;;;3.00;1.15;;;23.70;40.50;;;;;;5063388;28;20024;-78
2021/06/07 10:15:22;;;;;;;1.98;0.70;;;23.70;40.40;;;;;;5064138;28;20538;-79
2021/06/07 10:18:29;;;;;;;8.52;1.42;;;23.80;40.40;;;;;;5075521;28;20162;-79
2021/06/07 10:21:15;;;;;;;;;;;23.80;40.10;;;;;;5065112;28;20136;-78
2021/06/07 10:23:41;;;;;;;4.43;1.25;;;23.80;40.10;;;;;;5065071;28;20333;-78
2021/06/07 10:26:08;;;;;;;4.75;0.90;;;23.90;40.00;;;;;;5063166;28;20017;-75
2021/06/07 10:28:36;;;;;;;6.35;1.55;;;23.90;40.20;;;;;;5066621;28;20025;-78
2021/06/07 10:31:17;;;;;;;2.50;0.93;;;24.00;40.30;;;;;;5062681;28;20140;-78
2021/06/07 10:33:56;;;;;;;5.05;1.20;;;24.00;40.60;;;;;;5060210;28;20021;-77
2021/06/07 10:36:22;;;;;;;8.60;1.55;;;24.10;40.70;;;;;;5066408;28;20025;-73
2021/06/07 10:39:13;;;;;;;4.90;0.90;;;24.10;40.70;;;;;;5061978;28;20028;-73
2021/06/07 10:41:41;;;;;;;2.55;0.82;;;24.20;40.60;;;;;;5064312;28;20048;-74
2021/06/07 10:44:08;;;;;;;4.13;1.50;;;24.20;40.60;;;;;;5062718;28;20089;-76
2021/06/07 10:46:37;;;;;;;3.40;0.95;;;24.30;40.60;;;;;;5062611;28;20020;-77
2021/06/07 10:49:24;;;;;;;2.00;1.23;;;24.30;40.50;;;;;;5065072;28;20435;-77
2021/06/07 10:52:09;;;;;;;6.90;1.48;;;24.40;40.60;;;;;;5061441;28;20024;-77
2021/06/07 10:54:41;;;;;;;0.80;0.68;;;24.50;41.10;;;;;;5064676;28;20055;-77
2021/06/07 10:57:22;;;;;;;6.43;1.45;;;24.60;40.70;;;;;;5061937;28;20083;-77
2021/06/07 10:59:52;;;;;;;3.38;0.85;;;24.60;40.40;;;;;;5062912;28;20056;-79
2021/06/07 11:02:20;;;;;;;13.50;9.02;;;24.70;40.50;;;;;;5063954;28;20055;-79
2021/06/07 11:04:59;;;;;;;14.82;5.43;;;24.80;40.60;;;;;;5064671;28;20024;-78
2021/06/07 11:07:26;;;;;;;6.32;2.55;;;24.90;40.30;;;;;;5065495;28;20116;-79
2021/06/07 11:10:25;;;;;;;6.28;2.38;;;24.90;39.70;;;;;;5063276;28;20107;-79
2021/06/07 11:12:59;;;;;;;6.40;1.60;;;25.00;39.40;;;;;;5063504;28;20081;-80
2021/06/07 11:15:37;;;;;;;3.33;1.60;;;25.10;39.50;;;;;;5068024;28;20188;-79
2021/06/07 11:18:24;;;;;;;11.32;1.67;;;25.20;39.20;;;;;;5063903;28;20021;-79
2021/06/07 11:21:01;;;;;;;11.65;2.42;;;25.20;38.80;;;;;;5065520;28;20036;-78
2021/06/07 11:23:44;;;;;;;8.30;1.60;;;25.30;38.70;;;;;;5066169;28;20124;-79
2021/06/07 11:26:34;;;;;;;5.45;1.63;;;25.30;38.90;;;;;;5064435;28;20107;-78
2021/06/07 11:29:00;;;;;;;2.30;1.20;;;25.40;39.00;;;;;;5063633;28;20376;-79
2021/06/07 11:31:32;;;;;;;3.47;2.13;;;25.40;38.80;;;;;;5064501;28;20124;-80
2021/06/07 11:34:04;;;;;;;5.13;1.23;;;25.50;38.70;;;;;;5062533;28;20162;-76
2021/06/07 11:36:50;;;;;;;8.30;1.92;;;25.50;39.00;;;;;;5066724;28;20536;-75
2021/06/07 11:39:22;;;;;;;1.45;1.00;;;25.60;38.70;;;;;;5061332;28;20583;-73
2021/06/07 11:41:58;;;;;;;3.30;1.15;;;25.70;38.50;;;;;;5065609;28;20494;-72
2021/06/07 11:44:46;;;;;;;3.15;1.17;;;25.70;38.50;;;;;;5062191;28;20099;-78
2021/06/07 11:47:22;;;;;;;3.58;1.10;;;25.80;38.30;;;;;;5062530;28;20444;-72
2021/06/07 11:49:57;;;;;;;4.00;1.35;;;25.80;38.20;;;;;;5061355;28;20113;-79
2021/06/07 11:52:33;;;;;;;3.97;1.27;;;25.80;38.00;;;;;;5062799;28;20060;-75
2021/06/07 11:55:14;;;;;;;3.67;1.45;;;25.90;38.10;;;;;;5068143;28;20020;-72
2021/06/07 11:57:40;;;;;;;3.50;1.30;;;25.90;38.20;;;;;;5064343;28;20027;-73
2021/06/07 12:00:08;;;;;;;4.35;2.00;;;25.90;38.10;;;;;;5065739;28;20024;-82
2021/06/07 12:02:34;;;;;;;5.53;2.55;;;26.00;37.90;;;;;;5063378;28;20395;-76
2021/06/07 12:05:06;;;;;;;6.85;2.08;;;26.00;37.90;;;;;;5061012;28;20495;-73
2021/06/07 12:07:38;;;;;;;9.40;3.53;;;26.00;37.80;;;;;;5065116;28;20112;-80
2021/06/07 12:10:07;;;;;;;5.22;1.77;;;26.10;37.60;;;;;;5063868;28;20025;-78
2021/06/07 12:12:34;;;;;;;5.22;1.50;;;26.10;37.30;;;;;;5066020;28;20066;-78
2021/06/07 12:15:13;;;;;;;3.72;1.70;;;26.20;37.30;;;;;;5061202;28;20024;-73
2021/06/07 12:17:52;;;;;;;9.98;1.75;;;26.20;37.30;;;;;;5063274;28;20031;-79
2021/06/07 12:20:21;;;;;;;5.05;1.48;;;26.20;37.40;;;;;;5060393;28;20059;-78
2021/06/07 12:22:50;;;;;;;5.25;1.70;;;26.20;37.10;;;;;;5063907;28;20040;-74
2021/06/07 12:30:47;;;;;;;6.90;3.72;;;26.30;37.40;;;;;;5065373;28;20067;-75
2021/06/07 12:33:14;;;;;;;4.38;2.22;;;26.40;37.40;;;;;;5065264;28;20008;-77
2021/06/07 12:35:41;;;;;;;4.35;2.42;;;26.40;37.30;;;;;;5064971;28;20024;-76
2021/06/07 12:38:11;;;;;;;4.50;2.10;;;26.40;37.50;;;;;;5065587;28;20103;-77
2021/06/07 12:40:57;;;;;;;3.03;1.45;;;26.40;37.50;;;;;;5063539;28;20376;-77
2021/06/07 12:43:30;;;;;;;3.65;1.90;;;26.40;37.70;;;;;;5066923;28;20028;-76
2021/06/07 12:46:02;;;;;;;2.90;1.40;;;26.50;37.90;;;;;;5065188;28;20480;-76
2021/06/07 12:48:33;;;;;;;5.22;1.35;;;26.50;37.50;;;;;;5066021;28;20124;-76
2021/06/07 12:51:03;;;;;;;4.30;1.90;;;26.50;37.50;;;;;;5066797;28;20023;-77
2021/06/07 12:53:49;;;;;;;4.00;1.38;;;26.60;37.40;;;;;;5065720;28;20012;-73
2021/06/07 12:56:20;;;;;;;7.97;1.80;;;26.60;37.20;;;;;;5066042;28;20024;-74
2021/06/07 12:58:50;;;;;;;6.00;1.40;;;26.60;37.30;;;;;;5068816;28;20028;-76
2021/06/07 13:01:19;;;;;;;6.88;1.80;;;26.60;37.10;;;;;;5067929;28;20078;-75
2021/06/07 13:03:54;;;;;;;7.50;1.52;;;26.60;36.90;;;;;;5071177;28;20021;-77
2021/06/07 13:06:20;;;;;;;;;;;26.60;36.60;;;;;;5067669;28;20024;-77
2021/06/07 13:08:50;;;;;;;6.72;1.30;;;26.60;36.20;;;;;;5069517;28;20424;-77
2021/06/07 13:11:24;;;;;;;4.57;1.52;;;26.60;36.20;;;;;;5069841;28;20024;-77
2021/06/07 13:13:53;;;;;;;4.38;1.42;;;26.60;36.30;;;;;;5069327;28;20328;-76
2021/06/07 13:16:21;;;;;;;5.50;1.23;;;26.50;36.00;;;;;;5070215;28;20032;-76